Latest Weather Observations for Nuriootpa

IDS60801

Issued at 12:01 pm CDT Friday 20 January 2017 (issued every 30 minutes, with the page automatically refreshed every 10 minutes)

About weather observations | Map of weather stations | Latest weather observations for SA | Other Formats
Station Details ID: 023373 Name: NURIOOTPA PIRSA Lat: -34.48 Lon: 139.01 Height: 275.0 m
Data from the previous 72 hours. | See also: Recent months at Nuriootpa
Date/Time
CDT
Temp
°C
App
Temp
°C
Dew
Point
°C
Rel
Hum
%
Delta-T
°C
Wind Press
QNH
hPa
Press
MSL
hPa
Rain since
9am
mm
Dir  Spd
km/h
Gust
km/h
Spd
kts
Gust
kts
20/11:30am 18.7 14.9 12.5 67 3.5 SSW 24 35 13 19 1007.2 1006.0 0.0
20/11:00am 17.8 15.6 13.4 75 2.5 SSW 17 30 9 16 1006.9 1005.6 0.0
20/10:30am 18.0 16.4 15.0 82 1.8 SSW 17 26 9 14 1006.2 1005.0 0.0
20/10:00am 17.1 14.4 14.5 85 1.5 SW 22 32 12 17 1005.6 1004.4 0.0
20/09:30am 17.2 14.6 15.0 87 1.3 WSW 22 35 12 19 1005.0 1003.8 0.0
20/09:00am 17.3 15.4 15.8 91 0.9 WSW 20 30 11 16 1004.7 1003.5 19.8
20/08:30am 17.1 15.4 16.3 95 0.5 WSW 20 30 11 16 1004.2 1003.0 19.8
20/08:00am 17.0 15.3 16.3 96 0.4 SW 20 30 11 16 1003.6 1002.3 19.8
20/07:30am 16.9 14.0 16.2 96 0.4 WSW 26 37 14 20 1002.9 1001.6 19.8
20/07:00am 17.1 13.6 16.6 97 0.3 SW 30 43 16 23 1002.0 1000.8 19.6
20/06:30am 17.7 14.8 17.0 96 0.4 WSW 28 46 15 25 1001.3 1000.1 19.6
20/06:27am 17.8 14.9 17.0 95 0.5 WSW 28 46 15 25 1001.3 1000.1 19.4
20/06:00am 18.9 16.8 18.1 95 0.5 WSW 26 41 14 22 1000.9 999.7 19.4
20/05:30am 19.1 17.2 18.5 96 0.4 WSW 26 39 14 21 1000.5 999.2 19.4
20/05:00am 19.5 18.2 19.0 97 0.3 WSW 24 39 13 21 1000.1 998.8 19.4
20/04:30am 19.9 20.2 19.6 98 0.2 W 17 24 9 13 999.7 998.4 19.4
20/04:00am 20.1 21.6 19.8 98 0.2 W 11 13 6 7 999.5 998.2 19.4
20/03:30am 20.0 22.2 19.7 98 0.2 WNW 7 11 4 6 999.2 997.9 19.2
20/03:00am 19.8 21.6 19.6 99 0.1 WSW 9 15 5 8 999.5 998.2 16.4
20/02:30am 19.5 20.8 19.3 99 0.1 WSW 11 15 6 8 999.2 997.9 15.6
20/02:00am 19.4 17.8 19.1 98 0.2 WSW 26 37 14 20 1000.4 999.1 13.4
20/01:30am 20.3 19.7 19.8 97 0.3 WSW 22 33 12 18 999.8 998.5 8.8
20/01:00am 23.4 25.1 22.4 94 0.7 WNW 17 22 9 12 999.2 997.9 8.6
20/12:30am 23.6 25.7 22.4 93 0.8 W 15 24 8 13 999.8 998.5 8.6
20/12:00am 23.9 28.7 22.9 94 0.7 NW 2 6 1 3 1000.2 998.9 8.4
 
Date/Time
CDT
Temp
°C
App
Temp
°C
Dew
Point
°C
Rel
Hum
%
Delta-T
°C
Wind Press
QNH
hPa
Press
MSL
hPa
Rain since
9am
mm
Dir  Spd
km/h
Gust
km/h
Spd
kts
Gust
kts
19/11:30pm 24.1 26.5 22.3 90 1.2 NW 13 17 7 9 1000.5 999.2 8.4
19/11:00pm 23.8 27.1 22.5 92 0.9 NW 9 11 5 6 1001.0 999.8 8.4
19/10:30pm 23.6 26.4 22.3 92 0.9 NW 11 17 6 9 1001.7 1000.5 8.4
19/10:00pm 23.6 26.8 23.0 96 0.4 NNW 11 17 6 9 1002.3 1001.1 8.4
19/09:30pm 23.2 24.5 22.6 96 0.4 WSW 20 33 11 18 1002.7 1001.5 6.4
19/09:01pm 25.7 25.6 20.7 74 3.3 NW 22 65 12 35 1001.8 1000.6 0.0
19/09:00pm 27.8 27.3 18.6 57 6.0 NW 19 57 10 31 1001.8 1000.6 0.0
19/08:59pm 29.6 28.8 16.1 44 8.5 NNW 15 41 8 22 1001.5 1000.3 0.0
19/08:30pm 31.0 28.5 14.1 35 10.4 NNE 20 28 11 15 999.3 998.0 0.0
19/08:00pm 32.6 29.7 12.4 29 12.1 NNE 19 35 10 19 999.6 998.3 0.0
19/07:30pm 33.2 31.2 12.6 28 12.5 NNE 15 22 8 12 999.6 998.3 0.0
19/07:00pm 33.3 30.3 11.8 27 12.8 NNE 19 28 10 15 1000.0 998.7 0.0
19/06:30pm 34.0 30.5 12.2 26 13.2 NE 22 33 12 18 999.9 998.6 0.0
19/06:00pm 34.2 30.8 11.2 24 13.7 NE 20 32 11 17 1000.2 998.9 0.0
19/05:30pm 34.6 31.2 11.4 24 13.9 NE 20 32 11 17 1000.6 999.4 0.0
19/05:00pm 34.1 30.4 10.3 23 13.9 ENE 20 28 11 15 1001.5 1000.3 0.0
19/04:30pm 34.3 30.9 10.6 23 14.0 ENE 19 30 10 16 1002.3 1001.1 0.0
19/04:00pm 33.5 30.8 10.5 24 13.5 NE 15 22 8 12 1003.3 1002.0 0.0
19/03:30pm 32.2 28.9 9.4 24 13.1 NE 17 26 9 14 1004.1 1002.9 0.0
19/03:00pm 30.5 26.9 9.7 27 11.9 NE 19 26 10 14 1005.1 1003.9 0.0
19/02:30pm 29.8 26.0 9.1 27 11.7 NE 19 26 10 14 1006.0 1004.8 0.0
19/02:00pm 28.9 25.3 9.7 30 10.9 NE 19 28 10 15 1006.8 1005.5 0.0
19/01:30pm 28.5 25.1 9.1 29 10.9 ENE 17 26 9 14 1007.4 1006.2 0.0
19/01:00pm 28.3 24.5 9.0 29 10.8 NE 19 26 10 14 1007.9 1006.7 0.0
19/12:30pm 28.9 25.7 8.6 28 11.3 ENE 15 22 8 12 1008.3 1007.1 0.0
19/12:00pm 28.2 24.1 8.0 28 11.1 NE 19 26 10 14 1008.6 1007.4 0.0
19/11:30am 27.2 22.9 7.7 29 10.6 ENE 20 32 11 17 1009.0 1007.8 0.0
19/11:00am 25.9 21.5 7.5 31 9.9 ENE 20 28 11 15 1009.5 1008.3 0.0
19/10:30am 23.7 19.3 7.5 35 8.6 ENE 20 28 11 15 1010.0 1008.8 0.0
19/10:00am 22.8 18.2 6.7 35 8.4 NE 20 32 11 17 1010.6 1009.4 0.0
19/09:30am 22.1 17.5 6.7 37 8.0 ENE 20 28 11 15 1010.7 1009.5 0.0
19/09:00am 21.3 17.2 6.0 37 7.8 ENE 17 28 9 15 1011.0 1009.8 0.0
19/08:30am 20.6 16.0 5.5 37 7.6 ENE 19 30 10 16 1011.1 1009.9 0.0
19/08:00am 19.6 15.0 5.6 40 7.0 ENE 19 30 10 16 1011.1 1009.9 0.0
19/07:30am 18.7 15.0 6.4 44 6.2 ENE 15 24 8 13 1011.0 1009.8 0.0
19/07:00am 17.8 14.3 7.2 50 5.4 E 15 20 8 11 1010.8 1009.6 0.0
19/06:30am 16.7 14.6 8.4 58 4.3 E 9 17 5 9 1010.9 1009.7 0.0
19/06:00am 16.6 13.4 8.5 58 4.2 E 15 20 8 11 1010.8 1009.6 0.0
19/05:30am 16.6 13.8 8.7 59 4.1 E 13 20 7 11 1010.7 1009.5 0.0
19/05:00am 16.8 13.5 9.4 61 3.9 ESE 17 24 9 13 1010.9 1009.7 0.0
19/04:30am 17.0 14.1 9.7 62 3.9 E 15 24 8 13 1010.7 1009.5 0.0
19/04:00am 16.7 13.8 9.7 63 3.7 E 15 26 8 14 1010.9 1009.7 0.0
19/03:30am 17.0 13.6 9.2 60 4.1 ESE 17 24 9 13 1011.1 1009.9 0.0
19/03:00am 17.1 15.3 9.3 60 4.1 E 9 15 5 8 1011.4 1010.2 0.0
19/02:30am 16.7 13.4 9.7 63 3.7 E 17 26 9 14 1011.5 1010.3 0.0
19/02:00am 16.7 13.0 10.0 64 3.6 ESE 20 28 11 15 1011.8 1010.6 0.0
19/01:30am 16.8 14.0 10.1 64 3.6 E 15 22 8 12 1012.4 1011.2 0.0
19/01:00am 16.8 14.4 9.9 64 3.7 E 13 20 7 11 1012.6 1011.4 0.0
19/12:30am 17.2 14.4 9.9 62 3.9 E 15 28 8 15 1013.0 1011.8 0.0
19/12:00am 17.2 14.8 9.9 62 3.9 E 13 20 7 11 1013.4 1012.3 0.0
 
Date/Time
CDT
Temp
°C
App
Temp
°C
Dew
Point
°C
Rel
Hum
%
Delta-T
°C
Wind Press
QNH
hPa
Press
MSL
hPa
Rain since
9am
mm
Dir  Spd
km/h
Gust
km/h
Spd
kts
Gust
kts
18/11:30pm 17.2 14.4 10.1 63 3.8 SE 15 24 8 13 1013.6 1012.5 0.0
18/11:00pm 17.3 15.0 10.5 64 3.7 ESE 13 19 7 10 1013.8 1012.7 0.0
18/10:30pm 17.4 15.2 10.8 65 3.6 SE 13 22 7 12 1014.1 1013.0 0.0
18/10:00pm 17.6 14.6 10.8 64 3.7 SE 17 26 9 14 1014.0 1012.9 0.0
18/09:30pm 18.5 16.2 10.4 59 4.4 SE 13 24 7 13 1013.8 1012.7 0.0
18/09:00pm 19.2 17.2 10.2 56 4.9 ESE 11 19 6 10 1013.7 1012.6 0.0
18/08:30pm 19.9 17.3 9.5 51 5.6 ESE 13 22 7 12 1013.7 1012.6 0.0
18/08:00pm 20.9 17.8 9.0 46 6.4 SE 15 24 8 13 1013.5 1012.4 0.0
18/07:30pm 22.2 18.2 8.4 41 7.4 SE 19 33 10 18 1013.3 1012.2 0.0
18/07:00pm 23.1 18.9 8.4 39 7.9 ESE 20 32 11 17 1013.1 1011.9 0.0
18/06:30pm 24.1 19.7 8.9 38 8.3 SE 22 35 12 19 1012.9 1011.7 0.0
18/06:00pm 24.3 20.0 7.9 35 8.8 SE 20 30 11 16 1012.9 1011.7 0.0
18/05:30pm 25.4 20.8 6.7 30 9.9 SE 20 32 11 17 1013.1 1011.9 0.0
18/05:00pm 25.7 22.1 6.9 30 10.0 ESE 15 26 8 14 1013.5 1012.4 0.0
18/04:30pm 25.3 20.7 6.5 30 9.9 SE 20 28 11 15 1013.8 1012.7 0.0
18/04:00pm 25.9 21.6 7.2 30 10.0 SE 19 30 10 16 1013.8 1012.7 0.0
18/03:30pm 25.5 21.7 7.6 32 9.6 SE 17 24 9 13 1014.0 1012.9 0.0
18/03:00pm 25.3 21.1 8.1 33 9.3 SE 20 32 11 17 1014.5 1013.3 0.0
18/02:30pm 25.6 21.8 9.1 35 9.1 SE 19 33 10 18 1014.4 1013.2 0.0
18/02:00pm 24.9 20.5 8.8 36 8.8 SE 22 33 12 18 1014.7 1013.5 0.0
18/01:30pm 24.7 20.6 8.7 36 8.7 SE 20 35 11 19 1014.8 1013.6 0.0
18/01:00pm 23.3 18.7 8.2 38 8.1 SE 22 33 12 18 1015.1 1013.9 0.0
18/12:30pm 22.5 17.7 7.5 38 7.9 SE 22 37 12 20 1015.3 1014.1 0.0
18/12:00pm 23.3 19.2 8.7 39 7.9 ESE 20 33 11 18 1015.3 1014.1 0.0
18/11:30am 21.7 17.3 7.6 40 7.4 SE 20 37 11 20 1015.5 1014.3 0.0
18/11:00am 21.7 16.9 8.9 44 6.9 SE 24 35 13 19 1015.7 1014.5 0.0
18/10:30am 19.2 15.7 11.0 59 4.5 SE 20 32 11 17 1016.1 1014.9 0.0
18/10:00am 18.3 14.5 12.4 68 3.3 SE 24 35 13 19 1016.2 1015.0 0.0
18/09:30am 18.0 14.3 12.7 71 3.0 SE 24 32 13 17 1016.4 1015.2 0.0
18/09:00am 17.0 13.7 12.9 77 2.3 SE 22 33 12 18 1016.4 1015.2 0.0
18/08:30am 17.4 15.7 13.7 79 2.1 SE 15 26 8 14 1016.4 1015.2 0.0
18/08:00am 16.9 14.4 13.4 80 2.0 SE 19 30 10 16 1016.0 1014.8 0.0
18/07:30am 16.9 14.5 13.8 82 1.8 SSE 19 28 10 15 1015.5 1014.3 0.0
18/07:00am 16.7 15.3 14.5 87 1.3 SSE 15 22 8 12 1014.7 1013.5 0.0
18/06:30am 16.6 15.3 14.7 88 1.1 SSE 15 22 8 12 1013.9 1012.8 0.0
18/06:00am 16.4 15.6 14.0 86 1.4 SE 11 20 6 11 1012.8 1011.6 0.0
18/05:30am 16.2 14.1 13.6 84 1.5 ESE 17 32 9 17 1012.0 1010.8 0.0
18/05:00am 16.3 15.1 13.9 86 1.4 ESE 13 22 7 12 1011.8 1010.6 0.0
18/04:30am 16.5 14.2 14.1 86 1.4 ESE 19 30 10 16 1011.5 1010.3 0.0
18/04:00am 16.4 14.8 13.8 84 1.5 E 15 28 8 15 1011.3 1010.1 0.0
18/03:30am 16.7 15.7 13.4 81 1.9 ESE 11 20 6 11 1011.5 1010.3 0.0
18/03:00am 17.3 15.6 12.3 72 2.8 SE 13 20 7 11 1011.6 1010.4 0.0
18/02:30am 17.7 16.3 12.2 70 3.1 ENE 11 24 6 13 1011.6 1010.4 0.0
18/02:00am 18.3 15.2 12.3 68 3.4 SE 20 33 11 18 1011.2 1010.0 0.0
18/01:30am 18.7 14.5 12.3 66 3.6 SE 26 41 14 22 1011.3 1010.1 0.0
18/01:00am 19.1 14.0 12.0 63 4.0 SE 30 48 16 26 1011.0 1009.8 0.0
18/12:30am 19.5 13.7 11.4 59 4.5 SE 33 54 18 29 1010.7 1009.5 0.0
18/12:25am 19.6 14.0 11.6 60 4.5 SE 32 52 17 28 1010.7 1009.5 0.0
18/12:00am 20.1 14.4 11.3 57 4.9 SE 32 44 17 24 1010.6 1009.4 0.0
 
Date/Time
CDT
Temp
°C
App
Temp
°C
Dew
Point
°C
Rel
Hum
%
Delta-T
°C
Wind Press
QNH
hPa
Press
MSL
hPa
Rain since
9am
mm
Dir  Spd
km/h
Gust
km/h
Spd
kts
Gust
kts
17/11:35pm 20.5 14.6 10.5 52 5.5 SE 32 57 17 31 1010.6 1009.4 0.0
17/11:30pm 20.4 14.9 10.6 53 5.4 SE 30 46 16 25 1010.7 1009.5 0.0
17/11:27pm 20.4 15.3 10.6 53 5.4 SE 28 46 15 25 1010.7 1009.5 0.0
17/11:00pm 20.4 16.8 10.6 53 5.4 SSE 20 44 11 24 1011.1 1009.9 0.0
17/10:30pm 20.7 16.7 10.6 52 5.6 SSE 22 37 12 20 1011.1 1009.9 0.0
17/10:21pm 20.8 15.8 10.9 53 5.5 SSE 28 48 15 26 1011.1 1009.9 0.0
17/10:00pm 21.4 19.5 11.9 54 5.4 SSW 13 30 7 16 1011.1 1009.9 0.0
17/09:30pm 23.8 20.3 10.9 44 7.3 SSE 20 32 11 17 1010.3 1009.2 0.0
17/09:22pm 24.6 20.6 11.9 45 7.3 SSE 24 33 13 18 1010.0 1008.8 0.0
17/09:00pm 29.6 24.8 0.0 14 14.3 SSW 15 22 8 12 1009.4 1008.2 0.0
17/08:30pm 31.4 26.0 2.3 15 14.8 SW 20 32 11 17 1008.6 1007.4 0.0
17/08:00pm 33.9 29.8 2.4 13 16.3 SW 13 20 7 11 1007.9 1006.7 0.0
17/07:30pm 36.4 32.3 -0.5 9 18.5 SW 11 17 6 9 1007.4 1006.2 0.0
17/07:00pm 37.1 31.2 -2.3 8 19.2 SW 19 28 10 15 1007.3 1006.1 0.0
17/06:30pm 38.1 32.5 -3.3 7 20.1 WSW 17 30 9 16 1007.0 1005.8 0.0
17/06:00pm 38.2 31.4 -4.8 6 20.4 W 22 33 12 18 1006.9 1005.6 0.0
17/05:30pm 38.5 31.9 -6.9 5 20.9 W 20 35 11 19 1006.9 1005.6 0.0
17/05:00pm 38.6 31.5 -7.9 5 21.0 WSW 22 33 12 18 1007.0 1005.8 0.0
17/04:30pm 39.3 31.6 -11.1 4 21.9 WNW 24 37 13 20 1007.0 1005.8 0.0
17/04:00pm 39.2 31.7 -9.0 4 21.5 WNW 24 39 13 21 1007.2 1006.0 0.0
17/03:30pm 39.6 32.0 -10.4 4 22.0 WNW 24 43 13 23 1007.2 1006.0 0.0
17/03:00pm 39.1 32.0 -7.9 5 21.4 WNW 22 33 12 18 1007.5 1006.3 0.0
17/02:30pm 39.2 32.3 -10.8 4 21.8 W 20 33 11 18 1007.8 1006.6 0.0
17/02:00pm 38.5 31.5 -7.0 5 20.9 NW 22 37 12 20 1008.2 1007.0 0.0
17/01:30pm 38.7 31.6 -8.3 5 21.2 WNW 22 32 12 17 1008.5 1007.3 0.0
17/01:00pm 38.9 31.9 -7.4 5 21.2 W 22 35 12 19 1008.8 1007.6 0.0
17/12:30pm 38.1 30.6 -8.9 5 20.9 WNW 24 39 13 21 1009.1 1007.9 0.0

Other Formats:

Comma delimited format used in spreadsheet applications
http://www.bom.gov.au/fwo/IDS60801/IDS60801.94681.axf

JavaScript Object Notation format (JSON) in row-major order
http://www.bom.gov.au/fwo/IDS60801/IDS60801.94681.json